Lilbourn, MO (63862)

2:40 AM CDT on September 03, 2014 (GMT -0500)
SEMO Electric Coop | Change Station
CLOSE
Current Station
Personal Weather Station
Location: Sikeston, MO
Elevation: 338 ft
Nearby Weather Stations

Elev 338 ft 36.85 °N, 89.58 °W | Updated 55 seconds ago

Partly Cloudy
Partly Cloudy
70.0 °F
Feels Like 70.0 °F
N
0.0
Wind Variable Wind from NNW

Today
High -- | Low -- °F
--% Chance of Precip.
Yesterday
High -- | Low -- °F
Precip. -- in
6:31 AM 7:23 PM
First Quarter, 59% visible
Pressure 30.00 in
Visibility 1.0 miles
Clouds
Dew Point 67 °F
Humidity 91%
Rainfall 0.00 in
Snow Depth Not available.
UV Not available.
Pollen 8.70 out of 12
Air Quality Not available.
Flu Activity Not available.
METAR KCIR 030735Z AUTO 00000KT 1SM BR VV007 22/21 A3000 RMK AO2 T02190206

More Conditions Fewer Conditions

Pressure 30.00 in
Visibility 1.0 miles
Clouds
Dew Point 67 °F
Humidity 91%
Rainfall 0.00 in
Snow Depth Not available.
UV Not available.
Pollen 8.70 out of 12
Air Quality Not available.
Flu Activity Not available.
METAR KCIR 030735Z AUTO 00000KT 1SM BR VV007 22/21 A3000 RMK AO2 T02190206

More Conditions Fewer Conditions

10-Day Weather Forecast

Almanac

Astronomy

Sep. 03, 2014 Rise Set
Actual Time 6:31 AM CDT 7:23 PM CDT
Civil Twilight 6:04 AM CDT 7:49 PM CDT
Nautical Twilight 5:33 AM CDT 8:21 PM CDT
Astronomical Twilight 5:01 AM CDT 8:53 PM CDT
Moon 3:00 PM CDT 12:30 AM CDT
Length of Visible Light 13h 44m
Length of Day
12h 52m
Tomorrow will be 2m 15s shorter.
First Quarter, 59% of the Moon is Illuminated
Today
First Quarter
Sep 8
Full
Sep 15
Last Quarter
Sep 24
New
Oct 1
First Quarter

Today's Extremes

State Highs State Lows

Community

WunderPhotos

Upload Photos

1,749,899 photos uploaded!

Nearby

Snow Depth

Station Depth Elevation
No new snow has been reported.

Earthquake Activity

City Distance Mag. Time & Date
Tiptonville, Tennessee 14 miles 2.9 11:19 PM CDT
2014-08-31
Minimum magnitude displayed is 2.5.

Coastal Water Temperatures

Place Temperature
No Stations Reporting

Nearby Weather Stations